createdAt,value
2018-07-30T00:00:09.131Z,2.30
2018-07-30T00:03:12.129Z,2.70
2018-07-30T00:06:15.409Z,2.53
2018-07-30T00:09:18.392Z,2.50
2018-07-30T00:12:21.409Z,2.80
2018-07-30T00:15:24.416Z,2.67
2018-07-30T00:18:27.686Z,2.50
2018-07-30T00:21:30.820Z,2.73
2018-07-30T00:24:34.097Z,2.90
2018-07-30T00:27:37.113Z,2.53
2018-07-30T00:30:40.134Z,2.40
2018-07-30T00:33:43.171Z,2.80
2018-07-30T00:36:46.266Z,2.40
2018-07-30T00:39:49.534Z,2.47
2018-07-30T00:42:52.809Z,2.80
2018-07-30T00:45:56.088Z,2.53
2018-07-30T00:48:59.358Z,2.40
2018-07-30T00:52:02.499Z,2.60
2018-07-30T00:55:05.882Z,2.80
2018-07-30T00:58:08.882Z,2.40
2018-07-30T01:01:12.126Z,2.60
2018-07-30T01:04:15.428Z,2.23
2018-07-30T01:07:18.474Z,2.27
2018-07-30T01:10:21.501Z,2.60
2018-07-30T01:13:24.790Z,2.57
2018-07-30T01:16:28.042Z,2.93
2018-07-30T01:19:31.304Z,2.20
2018-07-30T01:22:34.585Z,2.30
2018-07-30T01:25:37.874Z,2.57
2018-07-30T01:28:40.970Z,2.57
2018-07-30T01:31:44.253Z,2.90
2018-07-30T01:34:47.508Z,2.80
2018-07-30T01:37:50.790Z,2.57
2018-07-30T01:40:54.076Z,3.10
2018-07-30T01:43:57.375Z,3.20
2018-07-30T01:47:00.642Z,2.87
2018-07-30T01:50:04.182Z,2.87
2018-07-30T01:53:07.442Z,2.80
2018-07-30T01:56:11.640Z,2.60
2018-07-30T01:59:16.462Z,2.98
2018-07-30T02:02:20.380Z,2.87
2018-07-30T02:05:23.425Z,2.70
2018-07-30T02:08:26.433Z,3.10
2018-07-30T02:11:29.481Z,2.83
2018-07-30T02:14:32.505Z,2.67
2018-07-30T02:17:35.781Z,2.90
2018-07-30T02:20:38.801Z,2.70
2018-07-30T02:23:42.053Z,2.90
2018-07-30T02:26:45.057Z,2.40
2018-07-30T02:29:48.333Z,2.75
2018-07-30T02:32:51.627Z,2.90
2018-07-30T02:35:54.630Z,2.90
2018-07-30T02:38:57.899Z,2.98
2018-07-30T02:42:00.964Z,2.87
2018-07-30T02:45:05.040Z,2.70
2018-07-30T02:48:08.034Z,2.80
2018-07-30T02:51:14.869Z,2.85
2018-07-30T02:54:17.885Z,2.80
2018-07-30T02:57:21.147Z,2.80
2018-07-30T03:00:24.183Z,3.05
2018-07-30T03:03:27.427Z,3.00
2018-07-30T03:06:30.740Z,3.10
2018-07-30T03:09:34.016Z,2.95
2018-07-30T03:12:37.290Z,3.33
2018-07-30T03:15:40.555Z,3.27
2018-07-30T03:18:43.585Z,2.98
2018-07-30T03:21:46.858Z,3.17
2018-07-30T03:24:50.317Z,2.98
2018-07-30T03:27:53.586Z,2.80
2018-07-30T03:30:56.857Z,2.87
2018-07-30T03:33:59.899Z,2.97
2018-07-30T03:37:03.206Z,3.20
2018-07-30T03:40:06.796Z,2.80
2018-07-30T03:43:10.099Z,3.10
2018-07-30T03:46:13.374Z,3.07
2018-07-30T03:49:16.389Z,3.13
2018-07-30T03:52:19.425Z,2.73
2018-07-30T03:55:22.710Z,3.20
2018-07-30T03:58:26.034Z,3.73
2018-07-30T04:01:29.058Z,3.23
2018-07-30T04:04:32.329Z,3.07
2018-07-30T04:07:35.558Z,2.97
2018-07-30T04:10:38.569Z,3.17
2018-07-30T04:13:41.830Z,3.00
2018-07-30T04:16:49.083Z,3.10
2018-07-30T04:19:52.103Z,3.20
2018-07-30T04:22:55.394Z,3.30
2018-07-30T04:25:58.406Z,3.10
2018-07-30T04:29:01.425Z,3.43
2018-07-30T04:32:04.686Z,3.43
2018-07-30T04:35:08.103Z,2.77
2018-07-30T04:38:11.369Z,3.43
2018-07-30T04:41:14.656Z,3.13
2018-07-30T04:44:17.924Z,3.10
2018-07-30T04:47:20.941Z,3.57
2018-07-30T04:50:24.272Z,3.20
2018-07-30T04:53:27.353Z,3.50
2018-07-30T04:56:31.064Z,3.33
2018-07-30T04:59:34.121Z,3.20
2018-07-30T05:02:37.392Z,3.03
2018-07-30T05:05:40.410Z,3.10
2018-07-30T05:08:43.655Z,2.90
2018-07-30T05:11:46.944Z,2.83
2018-07-30T05:14:50.210Z,3.17
2018-07-30T05:17:53.530Z,3.07
2018-07-30T05:20:56.787Z,3.30
2018-07-30T05:23:59.790Z,3.10
2018-07-30T05:27:02.831Z,3.10
2018-07-30T05:30:06.323Z,3.20
2018-07-30T05:33:09.309Z,2.60
2018-07-30T05:36:12.566Z,3.10
2018-07-30T05:39:15.594Z,3.00
2018-07-30T05:42:18.887Z,3.43
2018-07-30T05:45:21.901Z,3.07
2018-07-30T05:48:25.159Z,2.77
2018-07-30T05:51:28.424Z,2.73
2018-07-30T05:54:31.699Z,2.80
2018-07-30T05:57:34.696Z,3.90
2018-07-30T06:00:37.954Z,2.73
2018-07-30T06:03:41.246Z,2.70
2018-07-30T06:06:44.245Z,3.20
2018-07-30T06:09:47.491Z,3.10
2018-07-30T06:12:50.510Z,2.90
2018-07-30T06:15:53.762Z,3.40
2018-07-30T06:18:56.798Z,2.87
2018-07-30T06:22:00.093Z,2.90
2018-07-30T06:25:03.093Z,2.87
2018-07-30T06:28:06.403Z,2.27
2018-07-30T06:31:10.590Z,3.00
2018-07-30T06:34:15.449Z,2.60
2018-07-30T06:37:18.832Z,2.87
2018-07-30T06:40:22.149Z,2.77
2018-07-30T06:43:25.405Z,2.50
2018-07-30T06:46:28.400Z,2.42
2018-07-30T06:49:31.641Z,2.33
2018-07-30T06:52:34.652Z,2.52
2018-07-30T06:55:37.937Z,2.90
2018-07-30T06:58:41.249Z,2.50
2018-07-30T07:01:45.213Z,2.77
2018-07-30T07:04:48.237Z,2.50
2018-07-30T07:07:51.590Z,2.42
2018-07-30T07:10:54.907Z,2.47
2018-07-30T07:13:58.150Z,3.50
2018-07-30T07:17:01.475Z,3.25
2018-07-30T07:20:05.347Z,2.77
2018-07-30T07:23:08.350Z,2.12
2018-07-30T07:26:11.712Z,2.40
2018-07-30T07:29:14.991Z,3.70
2018-07-30T07:32:17.982Z,2.20
2018-07-30T07:35:21.235Z,2.33
2018-07-30T07:38:24.543Z,2.87
2018-07-30T07:41:27.601Z,2.58
2018-07-30T07:44:30.875Z,2.33
2018-07-30T07:47:33.909Z,2.40
2018-07-30T07:50:37.334Z,2.60
2018-07-30T07:53:40.566Z,2.60
2018-07-30T07:56:43.709Z,2.17
2018-07-30T07:59:46.999Z,2.90
2018-07-30T08:02:50.271Z,2.30
2018-07-30T08:05:53.692Z,2.58
2018-07-30T08:08:56.729Z,2.60
2018-07-30T08:11:59.734Z,1.83
2018-07-30T08:15:02.804Z,1.90
2018-07-30T08:18:06.126Z,1.77
2018-07-30T08:21:09.498Z,2.37
2018-07-30T08:24:12.541Z,2.30
2018-07-30T08:27:15.921Z,2.43
2018-07-30T08:30:18.958Z,2.13
2018-07-30T08:33:22.218Z,2.03
2018-07-30T08:36:25.572Z,2.00
2018-07-30T08:39:28.938Z,1.83
2018-07-30T08:42:32.447Z,1.73
2018-07-30T08:45:35.723Z,1.83
2018-07-30T08:48:38.747Z,1.73
2018-07-30T08:51:41.807Z,2.07
2018-07-30T08:54:45.054Z,1.33
2018-07-30T08:57:48.429Z,1.83
2018-07-30T09:00:51.937Z,1.70
2018-07-30T09:03:55.049Z,1.40
2018-07-30T09:06:58.498Z,1.77
2018-07-30T09:10:01.789Z,1.77
2018-07-30T09:13:05.125Z,1.70
2018-07-30T09:16:08.153Z,1.73
2018-07-30T09:19:11.448Z,1.07
2018-07-30T09:22:14.468Z,1.30
2018-07-30T09:25:17.843Z,1.73
2018-07-30T09:28:20.857Z,1.40
2018-07-30T09:31:24.166Z,1.20
2018-07-30T09:34:27.454Z,1.50
2018-07-30T09:37:30.744Z,1.50
2018-07-30T09:40:34.079Z,1.40
2018-07-30T09:43:37.072Z,1.23
2018-07-30T09:46:40.179Z,1.10
2018-07-30T09:49:43.180Z,1.60
2018-07-30T09:52:46.239Z,1.50
2018-07-30T09:55:49.565Z,1.70
2018-07-30T09:58:52.899Z,1.40
2018-07-30T10:01:56.158Z,1.30
2018-07-30T10:04:59.422Z,1.57
2018-07-30T10:08:02.768Z,1.30
2018-07-30T10:11:05.808Z,1.67
2018-07-30T10:14:09.308Z,1.50
2018-07-30T10:17:12.854Z,1.80
2018-07-30T10:20:16.029Z,1.40
2018-07-30T10:23:19.317Z,1.57
2018-07-30T10:26:22.625Z,1.60
2018-07-30T10:29:26.030Z,1.70
2018-07-30T10:32:29.131Z,1.50
2018-07-30T10:35:32.219Z,1.30
2018-07-30T10:38:35.866Z,1.33
2018-07-30T10:41:39.174Z,1.90
2018-07-30T10:44:42.429Z,1.70
2018-07-30T10:47:45.758Z,1.40
2018-07-30T10:50:49.031Z,1.53
2018-07-30T10:53:52.343Z,1.87
2018-07-30T10:56:55.324Z,1.40
2018-07-30T10:59:58.919Z,1.73
2018-07-30T11:03:02.226Z,1.60
2018-07-30T11:06:05.776Z,1.50
2018-07-30T11:09:09.439Z,1.30
2018-07-30T11:12:12.725Z,1.47
2018-07-30T11:15:15.790Z,1.60
2018-07-30T11:18:21.394Z,1.47
2018-07-30T11:21:24.696Z,1.27
2018-07-30T11:24:28.032Z,1.60
2018-07-30T11:27:32.803Z,1.67
2018-07-30T11:30:36.598Z,1.30
2018-07-30T11:33:39.636Z,1.70
2018-07-30T11:36:42.913Z,1.70
2018-07-30T11:39:45.944Z,1.97
2018-07-30T11:42:49.347Z,1.40
2018-07-30T11:45:52.598Z,1.60
2018-07-30T11:48:55.609Z,1.63
2018-07-30T11:51:58.886Z,1.30
2018-07-30T11:55:01.943Z,1.10
2018-07-30T11:58:05.241Z,1.10
2018-07-30T12:01:08.558Z,0.94
2018-07-30T12:04:11.855Z,1.30
2018-07-30T12:07:15.174Z,0.95
2018-07-30T12:10:18.452Z,1.10
2018-07-30T12:13:21.513Z,1.02
2018-07-30T12:16:24.507Z,1.12
2018-07-30T12:19:27.774Z,1.30
2018-07-30T12:22:31.073Z,1.10
2018-07-30T12:25:34.406Z,1.23
2018-07-30T12:28:37.736Z,1.00
2018-07-30T12:31:40.835Z,1.10
2018-07-30T12:34:44.079Z,1.12
2018-07-30T12:37:47.371Z,1.10
2018-07-30T12:40:50.654Z,0.95
2018-07-30T12:43:53.942Z,1.30
2018-07-30T12:46:56.946Z,1.05
2018-07-30T12:50:00.229Z,1.00
2018-07-30T12:53:03.526Z,1.20
2018-07-30T12:56:06.589Z,1.07
2018-07-30T12:59:09.973Z,1.40
2018-07-30T13:02:13.228Z,1.35
2018-07-30T13:05:16.244Z,2.17
2018-07-30T13:08:19.555Z,1.20
2018-07-30T13:11:22.808Z,1.40
2018-07-30T13:14:26.135Z,1.27
2018-07-30T13:17:29.176Z,1.10
2018-07-30T13:20:32.466Z,1.13
2018-07-30T13:23:35.746Z,1.30
2018-07-30T13:26:38.945Z,1.15
2018-07-30T13:29:42.067Z,1.20
2018-07-30T13:32:45.380Z,1.30
2018-07-30T13:35:48.633Z,1.30
2018-07-30T13:38:51.901Z,1.30
2018-07-30T13:41:55.258Z,1.30
2018-07-30T13:44:58.352Z,1.40
2018-07-30T13:48:01.703Z,1.40
2018-07-30T13:51:04.975Z,1.07
2018-07-30T13:54:08.311Z,1.20
2018-07-30T13:57:11.328Z,1.40
2018-07-30T14:00:14.356Z,1.07
2018-07-30T14:03:17.659Z,1.23
2018-07-30T14:06:20.936Z,1.20
2018-07-30T14:09:23.975Z,1.10
2018-07-30T14:12:27.257Z,1.30
2018-07-30T14:15:30.288Z,1.20
2018-07-30T14:18:33.545Z,1.20
2018-07-30T14:21:36.581Z,1.10
2018-07-30T14:24:39.862Z,1.30
2018-07-30T14:27:42.913Z,1.10
2018-07-30T14:30:46.511Z,1.20
2018-07-30T14:33:49.567Z,0.90
2018-07-30T14:36:52.788Z,1.17
2018-07-30T14:39:55.720Z,1.00
2018-07-30T14:42:59.023Z,1.15
2018-07-30T14:46:02.375Z,1.25
2018-07-30T14:49:05.401Z,1.30
2018-07-30T14:52:08.427Z,1.37
2018-07-30T14:55:11.817Z,1.12
2018-07-30T14:58:14.810Z,1.10
2018-07-30T15:01:18.145Z,1.72
2018-07-30T15:04:21.402Z,1.40
2018-07-30T15:07:24.422Z,1.50
2018-07-30T15:10:27.674Z,1.50
2018-07-30T15:13:30.967Z,1.30
2018-07-30T15:16:34.537Z,1.60
2018-07-30T15:19:37.664Z,1.15
2018-07-30T15:22:40.646Z,1.07
2018-07-30T15:25:43.723Z,1.02
2018-07-30T15:28:46.968Z,1.20
2018-07-30T15:31:50.001Z,2.20
2018-07-30T15:34:53.361Z,2.10
2018-07-30T15:37:56.839Z,2.00
2018-07-30T15:40:59.835Z,2.30
2018-07-30T15:44:03.645Z,2.33
2018-07-30T15:47:06.710Z,2.15
2018-07-30T15:50:09.985Z,2.23
2018-07-30T15:53:13.263Z,2.00
2018-07-30T15:56:16.565Z,2.30
2018-07-30T15:59:19.620Z,2.57
2018-07-30T16:02:22.655Z,2.50
2018-07-30T16:05:25.996Z,2.10
2018-07-30T16:08:29.423Z,2.27
2018-07-30T16:11:32.715Z,2.20
2018-07-30T16:14:36.060Z,2.20
2018-07-30T16:17:39.088Z,2.30
2018-07-30T16:20:42.355Z,2.40
2018-07-30T16:23:45.481Z,1.97
2018-07-30T16:26:48.496Z,2.27
2018-07-30T16:29:51.800Z,2.23
2018-07-30T16:32:54.937Z,2.20
2018-07-30T16:35:58.230Z,2.53
2018-07-30T16:39:01.282Z,2.33
2018-07-30T16:42:04.661Z,2.17
2018-07-30T16:45:08.279Z,2.47
2018-07-30T16:48:11.316Z,2.20
2018-07-30T16:51:14.695Z,2.23
2018-07-30T16:54:17.967Z,2.63
2018-07-30T16:57:21.315Z,2.53
2018-07-30T17:00:24.370Z,2.17
2018-07-30T17:03:27.411Z,2.40
2018-07-30T17:06:30.671Z,2.50
2018-07-30T17:09:33.982Z,2.63
2018-07-30T17:12:37.246Z,2.10
2018-07-30T17:15:40.506Z,1.90
2018-07-30T17:18:43.544Z,1.90
2018-07-30T17:21:46.846Z,1.80
2018-07-30T17:24:50.780Z,1.97
2018-07-30T17:27:55.284Z,1.87
2018-07-30T17:30:58.465Z,1.70
2018-07-30T17:34:01.735Z,1.50
2018-07-30T17:37:05.282Z,1.67
2018-07-30T17:40:09.386Z,1.60
2018-07-30T17:43:12.446Z,1.90
2018-07-30T17:46:15.472Z,1.82
2018-07-30T17:49:18.751Z,1.60
2018-07-30T17:52:21.792Z,1.60
2018-07-30T17:55:25.096Z,1.70
2018-07-30T17:58:28.363Z,1.90
2018-07-30T18:01:31.608Z,2.02
2018-07-30T18:04:34.942Z,1.80
2018-07-30T18:07:38.286Z,1.90
2018-07-30T18:10:41.605Z,1.80
2018-07-30T18:13:44.896Z,1.63
2018-07-30T18:16:48.353Z,1.83
2018-07-30T18:19:51.634Z,1.65
2018-07-30T18:22:54.667Z,1.70
2018-07-30T18:25:57.722Z,1.82
2018-07-30T18:29:01.230Z,1.85
2018-07-30T18:32:04.622Z,2.10
2018-07-30T18:35:07.737Z,2.30
2018-07-30T18:38:10.965Z,2.37
2018-07-30T18:41:14.050Z,2.02
2018-07-30T18:44:17.362Z,2.00
2018-07-30T18:47:20.652Z,1.80
2018-07-30T18:50:23.945Z,1.80
2018-07-30T18:53:27.013Z,2.00
2018-07-30T18:56:30.185Z,2.10
2018-07-30T18:59:33.490Z,1.90
2018-07-30T19:02:36.764Z,1.97
2018-07-30T19:05:40.058Z,2.00
2018-07-30T19:08:43.354Z,1.87
2018-07-30T19:11:46.466Z,2.23
2018-07-30T19:14:50.394Z,2.10
2018-07-30T19:17:53.876Z,2.10
2018-07-30T19:20:57.325Z,2.20
2018-07-30T19:24:00.629Z,1.90
2018-07-30T19:27:04.569Z,2.50
2018-07-30T19:30:07.671Z,2.10
2018-07-30T19:33:10.773Z,2.53
2018-07-30T19:36:14.239Z,2.60
2018-07-30T19:39:19.652Z,2.80
2018-07-30T19:42:22.866Z,2.80
2018-07-30T19:45:27.579Z,2.80
2018-07-30T19:48:30.790Z,3.50
2018-07-30T19:51:33.925Z,3.60
2018-07-30T19:54:37.281Z,3.10
2018-07-30T19:57:40.873Z,2.90
2018-07-30T20:00:44.429Z,2.70
2018-07-30T20:03:49.812Z,2.77
2018-07-30T20:06:53.224Z,2.90
2018-07-30T20:09:56.659Z,2.80
2018-07-30T20:13:00.780Z,3.20
2018-07-30T20:16:06.840Z,2.80
2018-07-30T20:19:09.882Z,2.60
2018-07-30T20:22:13.310Z,3.13
2018-07-30T20:25:16.610Z,2.87
2018-07-30T20:28:19.907Z,3.03
2018-07-30T20:31:23.878Z,2.83
2018-07-30T20:34:26.898Z,3.10
2018-07-30T20:37:30.203Z,3.23
2018-07-30T20:40:33.457Z,3.17
2018-07-30T20:44:40.523Z,3.30
2018-07-30T21:04:04.782Z,2.43
2018-07-30T21:07:08.141Z,2.58
2018-07-30T21:10:11.475Z,2.70
2018-07-30T21:13:15.941Z,2.57
2018-07-30T21:16:19.192Z,2.65
2018-07-30T21:19:22.479Z,2.87
2018-07-30T21:22:25.775Z,2.93
2018-07-30T21:25:29.074Z,3.15
2018-07-30T21:28:32.117Z,2.75
2018-07-30T21:31:35.152Z,2.75
2018-07-30T21:34:38.416Z,2.72
2018-07-30T21:37:41.722Z,2.85
2018-07-30T21:40:44.775Z,2.87
2018-07-30T21:43:48.041Z,3.13
2018-07-30T21:46:51.118Z,3.10
2018-07-30T21:53:03.969Z,2.80
2018-07-30T21:56:07.359Z,2.93
2018-07-30T21:59:10.655Z,2.90
2018-07-30T22:02:14.115Z,2.97
2018-07-30T22:05:17.370Z,3.10
2018-07-30T22:08:20.438Z,3.27
2018-07-30T22:11:23.451Z,3.20
2018-07-30T22:14:27.025Z,2.97
2018-07-30T22:17:30.372Z,3.10
2018-07-30T22:20:33.456Z,2.90
2018-07-30T22:23:36.923Z,3.27
2018-07-30T22:26:40.229Z,3.10
2018-07-30T22:29:43.639Z,3.33
2018-07-30T22:32:46.919Z,3.63
2018-07-30T22:35:49.942Z,3.43
2018-07-30T22:38:52.987Z,3.30
2018-07-30T22:41:56.304Z,3.53
2018-07-30T22:44:59.942Z,3.63
2018-07-30T22:48:03.682Z,3.50
2018-07-30T22:51:06.710Z,3.77
2018-07-30T22:54:09.920Z,4.00
2018-07-30T23:00:28.570Z,3.80
2018-07-30T23:03:31.633Z,3.70
2018-07-30T23:06:34.673Z,3.53
2018-07-30T23:09:37.946Z,3.60
2018-07-30T23:12:41.290Z,3.80
2018-07-30T23:15:44.310Z,3.83
2018-07-30T23:18:47.610Z,4.10
2018-07-30T23:21:50.680Z,3.93
2018-07-30T23:24:53.759Z,3.67
2018-07-30T23:27:56.786Z,3.75
2018-07-30T23:31:00.047Z,4.10
2018-07-30T23:34:03.083Z,3.80
2018-07-30T23:37:06.399Z,4.03
2018-07-30T23:40:09.429Z,3.70
2018-07-30T23:43:12.723Z,3.83
2018-07-30T23:46:15.756Z,4.27
2018-07-30T23:49:19.047Z,4.10
2018-07-30T23:52:22.057Z,3.37
2018-07-30T23:55:25.330Z,3.17
2018-07-30T23:58:28.690Z,3.77
